sensor_id;sensor_type;location;lat;lon;timestamp;pressure;altitude;pressure_sealevel;temperature;humidity
11343;BME280;5726;42.160;24.746;2023-07-16T00:00:59;99663.59;;;27.80;71.12
11343;BME280;5726;42.160;24.746;2023-07-16T00:03:24;99665.97;;;27.75;71.09
11343;BME280;5726;42.160;24.746;2023-07-16T00:05:50;99669.91;;;27.74;71.13
11343;BME280;5726;42.160;24.746;2023-07-16T00:08:16;99680.16;;;27.66;71.45
11343;BME280;5726;42.160;24.746;2023-07-16T00:10:42;99679.00;;;27.67;71.09
11343;BME280;5726;42.160;24.746;2023-07-16T00:13:07;99678.56;;;27.72;71.09
11343;BME280;5726;42.160;24.746;2023-07-16T00:15:33;99675.44;;;27.56;72.02
11343;BME280;5726;42.160;24.746;2023-07-16T00:17:58;99672.28;;;27.65;71.69
11343;BME280;5726;42.160;24.746;2023-07-16T00:20:24;99677.44;;;27.52;72.29
11343;BME280;5726;42.160;24.746;2023-07-16T00:22:50;99681.75;;;27.40;72.68
11343;BME280;5726;42.160;24.746;2023-07-16T00:25:15;99688.03;;;27.44;72.64
11343;BME280;5726;42.160;24.746;2023-07-16T00:27:41;99688.84;;;27.51;71.95
11343;BME280;5726;42.160;24.746;2023-07-16T00:30:07;99685.28;;;27.40;72.56
11343;BME280;5726;42.160;24.746;2023-07-16T00:32:33;99687.66;;;27.45;72.23
11343;BME280;5726;42.160;24.746;2023-07-16T00:34:59;99680.97;;;27.29;72.92
11343;BME280;5726;42.160;24.746;2023-07-16T00:37:24;99684.91;;;27.28;73.22
11343;BME280;5726;42.160;24.746;2023-07-16T00:39:50;99685.31;;;27.33;72.77
11343;BME280;5726;42.160;24.746;2023-07-16T00:42:16;99683.34;;;27.51;71.70
11343;BME280;5726;42.160;24.746;2023-07-16T00:44:41;99684.13;;;27.31;72.96
11343;BME280;5726;42.160;24.746;2023-07-16T00:47:08;99681.75;;;27.67;71.53
11343;BME280;5726;42.160;24.746;2023-07-16T00:49:34;99679.38;;;27.62;71.63
11343;BME280;5726;42.160;24.746;2023-07-16T00:52:00;99687.25;;;27.53;72.12
11343;BME280;5726;42.160;24.746;2023-07-16T00:54:26;99684.91;;;27.55;72.14
11343;BME280;5726;42.160;24.746;2023-07-16T00:56:51;99671.44;;;27.82;70.50
11343;BME280;5726;42.160;24.746;2023-07-16T00:59:17;99675.47;;;27.53;71.75
11343;BME280;5726;42.160;24.746;2023-07-16T01:01:42;99675.47;;;27.53;72.06
11343;BME280;5726;42.160;24.746;2023-07-16T01:04:08;99680.97;;;27.56;71.91
11343;BME280;5726;42.160;24.746;2023-07-16T01:06:35;99684.88;;;27.62;71.93
11343;BME280;5726;42.160;24.746;2023-07-16T01:09:31;99674.66;;;27.59;71.68
11343;BME280;5726;42.160;24.746;2023-07-16T01:11:57;99679.00;;;27.46;72.13
11343;BME280;5726;42.160;24.746;2023-07-16T01:14:25;99678.59;;;27.31;73.38
11343;BME280;5726;42.160;24.746;2023-07-16T01:16:51;99678.19;;;27.46;72.85
11343;BME280;5726;42.160;24.746;2023-07-16T01:19:18;99673.91;;;27.55;71.88
11343;BME280;5726;42.160;24.746;2023-07-16T01:30:14;99690.38;;;27.69;70.62
11343;BME280;5726;42.160;24.746;2023-07-16T01:32:41;99694.69;;;27.77;69.90
11343;BME280;5726;42.160;24.746;2023-07-16T01:35:08;99688.03;;;27.68;70.72
11343;BME280;5726;42.160;24.746;2023-07-16T01:37:33;99690.41;;;27.62;71.09
11343;BME280;5726;42.160;24.746;2023-07-16T01:39:59;99690.38;;;27.76;69.94
11343;BME280;5726;42.160;24.746;2023-07-16T01:42:24;99684.47;;;27.74;69.97
11343;BME280;5726;42.160;24.746;2023-07-16T01:44:50;99692.72;;;27.74;70.13
11343;BME280;5726;42.160;24.746;2023-07-16T01:47:49;99688.03;;;27.68;70.21
11343;BME280;5726;42.160;24.746;2023-07-16T01:50:15;99690.38;;;27.73;70.26
11343;BME280;5726;42.160;24.746;2023-07-16T01:52:41;99684.84;;;27.80;69.71
11343;BME280;5726;42.160;24.746;2023-07-16T01:55:06;99690.00;;;27.78;69.35
11343;BME280;5726;42.160;24.746;2023-07-16T01:57:32;99693.94;;;27.66;69.91
11343;BME280;5726;42.160;24.746;2023-07-16T01:59:58;99689.22;;;27.49;71.20
11343;BME280;5726;42.160;24.746;2023-07-16T02:02:23;99688.84;;;27.61;70.42
11343;BME280;5726;42.160;24.746;2023-07-16T02:04:48;99686.47;;;27.63;70.35
11343;BME280;5726;42.160;24.746;2023-07-16T02:07:14;99687.25;;;27.46;71.49
11343;BME280;5726;42.160;24.746;2023-07-16T02:09:39;99691.97;;;27.49;71.34
11343;BME280;5726;42.160;24.746;2023-07-16T02:12:06;99687.63;;;27.69;70.02
11343;BME280;5726;42.160;24.746;2023-07-16T02:14:31;99691.94;;;27.84;68.76
11343;BME280;5726;42.160;24.746;2023-07-16T02:16:57;99693.53;;;27.71;69.55
11343;BME280;5726;42.160;24.746;2023-07-16T02:19:22;99699.88;;;27.54;70.97
11343;BME280;5726;42.160;24.746;2023-07-16T02:21:48;99697.91;;;27.58;70.04
11343;BME280;5726;42.160;24.746;2023-07-16T02:24:13;99690.44;;;27.55;70.33
11343;BME280;5726;42.160;24.746;2023-07-16T02:26:39;99689.63;;;27.58;71.02
11343;BME280;5726;42.160;24.746;2023-07-16T02:29:04;99694.31;;;27.68;69.88
11343;BME280;5726;42.160;24.746;2023-07-16T02:31:34;99702.22;;;27.73;69.83
11343;BME280;5726;42.160;24.746;2023-07-16T02:33:59;99697.47;;;27.70;70.34
11343;BME280;5726;42.160;24.746;2023-07-16T02:36:24;99702.22;;;27.63;70.65
11343;BME280;5726;42.160;24.746;2023-07-16T02:38:50;99701.38;;;27.87;69.29
11343;BME280;5726;42.160;24.746;2023-07-16T02:41:15;99710.84;;;27.75;69.98
11343;BME280;5726;42.160;24.746;2023-07-16T02:43:41;99709.22;;;27.95;69.24
11343;BME280;5726;42.160;24.746;2023-07-16T02:46:06;99700.56;;;28.00;69.10
11343;BME280;5726;42.160;24.746;2023-07-16T02:48:31;99707.25;;;28.09;68.68
11343;BME280;5726;42.160;24.746;2023-07-16T02:50:57;99700.56;;;27.96;69.22
11343;BME280;5726;42.160;24.746;2023-07-16T02:53:22;99702.88;;;28.15;68.61
11343;BME280;5726;42.160;24.746;2023-07-16T02:55:48;99700.44;;;28.35;67.08
11343;BME280;5726;42.160;24.746;2023-07-16T02:58:13;99706.00;;;28.24;67.70
11343;BME280;5726;42.160;24.746;2023-07-16T03:00:39;99706.84;;;28.18;67.91
11343;BME280;5726;42.160;24.746;2023-07-16T03:03:04;99711.97;;;28.02;68.64
11343;BME280;5726;42.160;24.746;2023-07-16T03:05:30;99709.59;;;28.00;69.27
11343;BME280;5726;42.160;24.746;2023-07-16T03:07:55;99704.53;;;27.89;69.74
11343;BME280;5726;42.160;24.746;2023-07-16T03:10:21;99698.19;;;27.95;69.31
11343;BME280;5726;42.160;24.746;2023-07-16T03:12:47;99702.94;;;27.94;69.49
11343;BME280;5726;42.160;24.746;2023-07-16T03:15:12;99711.22;;;27.77;69.79
11343;BME280;5726;42.160;24.746;2023-07-16T03:17:38;99710.44;;;27.87;70.20
11343;BME280;5726;42.160;24.746;2023-07-16T03:20:03;99708.06;;;27.89;69.98
11343;BME280;5726;42.160;24.746;2023-07-16T03:22:30;99707.69;;;27.87;70.09
11343;BME280;5726;42.160;24.746;2023-07-16T03:24:56;99717.03;;;28.31;67.98
11343;BME280;5726;42.160;24.746;2023-07-16T03:27:21;99719.25;;;28.57;67.09
11343;BME280;5726;42.160;24.746;2023-07-16T03:29:47;99715.03;;;28.39;66.84
11343;BME280;5726;42.160;24.746;2023-07-16T03:32:12;99723.22;;;28.52;66.37
11343;BME280;5726;42.160;24.746;2023-07-16T03:34:38;99725.41;;;28.92;65.27
11343;BME280;5726;42.160;24.746;2023-07-16T03:37:03;99715.34;;;29.15;64.62
11343;BME280;5726;42.160;24.746;2023-07-16T03:39:29;99717.16;;;29.42;62.92
11343;BME280;5726;42.160;24.746;2023-07-16T03:41:54;99730.41;;;29.58;62.02
11343;BME280;5726;42.160;24.746;2023-07-16T03:44:19;99727.41;;;29.42;62.65
11343;BME280;5726;42.160;24.746;2023-07-16T03:46:45;99726.63;;;29.42;62.67
11343;BME280;5726;42.160;24.746;2023-07-16T03:49:10;99730.38;;;29.61;61.21
11343;BME280;5726;42.160;24.746;2023-07-16T03:51:36;99727.44;;;29.82;60.57
11343;BME280;5726;42.160;24.746;2023-07-16T03:54:01;99727.00;;;29.87;60.41
11343;BME280;5726;42.160;24.746;2023-07-16T03:56:26;99730.09;;;29.92;60.47
11343;BME280;5726;42.160;24.746;2023-07-16T03:58:52;99733.44;;;30.10;59.91
11343;BME280;5726;42.160;24.746;2023-07-16T04:01:17;99735.41;;;30.13;59.79
11343;BME280;5726;42.160;24.746;2023-07-16T04:03:43;99727.84;;;30.50;58.29
11343;BME280;5726;42.160;24.746;2023-07-16T04:06:09;99735.41;;;30.76;57.89
11343;BME280;5726;42.160;24.746;2023-07-16T04:08:37;99736.72;;;30.98;56.41
11343;BME280;5726;42.160;24.746;2023-07-16T04:11:04;99733.13;;;31.24;55.96
11343;BME280;5726;42.160;24.746;2023-07-16T04:13:30;99742.19;;;31.28;54.68
11343;BME280;5726;42.160;24.746;2023-07-16T04:15:55;99745.19;;;31.14;54.82
11343;BME280;5726;42.160;24.746;2023-07-16T04:18:22;99747.84;;;31.47;53.88
11343;BME280;5726;42.160;24.746;2023-07-16T04:20:48;99744.53;;;31.55;53.34
11343;BME280;5726;42.160;24.746;2023-07-16T04:23:14;99739.84;;;31.52;53.42
11343;BME280;5726;42.160;24.746;2023-07-16T04:25:39;99748.56;;;31.51;53.68
11343;BME280;5726;42.160;24.746;2023-07-16T04:28:04;99752.47;;;31.53;53.59
11343;BME280;5726;42.160;24.746;2023-07-16T04:30:30;99742.84;;;31.61;53.27
11343;BME280;5726;42.160;24.746;2023-07-16T04:32:55;99754.94;;;31.71;53.08
11343;BME280;5726;42.160;24.746;2023-07-16T04:35:21;99750.84;;;31.56;53.34
11343;BME280;5726;42.160;24.746;2023-07-16T04:37:46;99750.97;;;31.94;52.11
11343;BME280;5726;42.160;24.746;2023-07-16T04:40:12;99740.06;;;31.61;52.71
11343;BME280;5726;42.160;24.746;2023-07-16T04:42:37;99748.53;;;31.02;53.95
11343;BME280;5726;42.160;24.746;2023-07-16T04:45:04;99760.94;;;31.46;53.81
11343;BME280;5726;42.160;24.746;2023-07-16T04:47:30;99758.22;;;31.39;53.43
11343;BME280;5726;42.160;24.746;2023-07-16T04:49:58;99758.03;;;31.01;54.56
11343;BME280;5726;42.160;24.746;2023-07-16T04:52:23;99765.63;;;31.23;54.82
11343;BME280;5726;42.160;24.746;2023-07-16T04:54:49;99767.19;;;31.73;52.87
11343;BME280;5726;42.160;24.746;2023-07-16T04:57:14;99770.56;;;32.07;52.26
11343;BME280;5726;42.160;24.746;2023-07-16T04:59:40;99761.03;;;32.08;51.89
11343;BME280;5726;42.160;24.746;2023-07-16T05:02:06;99773.56;;;32.16;51.60
11343;BME280;5726;42.160;24.746;2023-07-16T05:04:33;99772.09;;;32.50;50.63
11343;BME280;5726;42.160;24.746;2023-07-16T05:07:03;99773.25;;;32.52;50.07
11343;BME280;5726;42.160;24.746;2023-07-16T05:09:29;99779.31;;;32.67;48.85
11343;BME280;5726;42.160;24.746;2023-07-16T05:11:55;99778.38;;;32.54;48.95
11343;BME280;5726;42.160;24.746;2023-07-16T05:14:20;99779.75;;;32.23;49.45
11343;BME280;5726;42.160;24.746;2023-07-16T05:16:46;99782.84;;;31.83;49.61
11343;BME280;5726;42.160;24.746;2023-07-16T05:19:11;99780.03;;;32.09;49.21
11343;BME280;5726;42.160;24.746;2023-07-16T05:21:37;99784.81;;;32.09;49.10
11343;BME280;5726;42.160;24.746;2023-07-16T05:24:03;99785.94;;;32.11;49.30
11343;BME280;5726;42.160;24.746;2023-07-16T05:26:29;99788.78;;;32.08;48.53
11343;BME280;5726;42.160;24.746;2023-07-16T05:28:55;99794.44;;;32.01;49.55
11343;BME280;5726;42.160;24.746;2023-07-16T05:31:20;99786.00;;;31.85;50.50
11343;BME280;5726;42.160;24.746;2023-07-16T05:33:46;99797.72;;;31.96;50.10
11343;BME280;5726;42.160;24.746;2023-07-16T05:36:11;99792.13;;;32.19;48.58
11343;BME280;5726;42.160;24.746;2023-07-16T05:38:36;99798.34;;;32.26;47.51
11343;BME280;5726;42.160;24.746;2023-07-16T05:41:03;99788.19;;;32.39;48.56
11343;BME280;5726;42.160;24.746;2023-07-16T05:43:28;99789.25;;;32.26;48.63
11343;BME280;5726;42.160;24.746;2023-07-16T05:45:54;99797.72;;;32.38;49.22
11343;BME280;5726;42.160;24.746;2023-07-16T05:48:20;99792.38;;;32.28;49.08
11343;BME280;5726;42.160;24.746;2023-07-16T05:50:45;99794.44;;;32.43;48.61
11343;BME280;5726;42.160;24.746;2023-07-16T05:53:11;99799.50;;;32.29;49.02
11343;BME280;5726;42.160;24.746;2023-07-16T05:55:36;99793.91;;;31.87;51.26
11343;BME280;5726;42.160;24.746;2023-07-16T05:58:04;99799.69;;;32.18;49.75
11343;BME280;5726;42.160;24.746;2023-07-16T06:00:29;99797.47;;;32.71;49.06
11343;BME280;5726;42.160;24.746;2023-07-16T06:02:55;99803.81;;;33.26;47.55
11343;BME280;5726;42.160;24.746;2023-07-16T06:05:21;99804.47;;;33.97;45.01
11343;BME280;5726;42.160;24.746;2023-07-16T06:07:46;99800.53;;;34.54;43.95
11343;BME280;5726;42.160;24.746;2023-07-16T06:10:12;99797.44;;;35.30;42.26
11343;BME280;5726;42.160;24.746;2023-07-16T06:12:37;99796.75;;;35.88;40.77
11343;BME280;5726;42.160;24.746;2023-07-16T06:15:03;99801.28;;;36.40;39.56
11343;BME280;5726;42.160;24.746;2023-07-16T06:17:28;99801.09;;;36.23;39.25
11343;BME280;5726;42.160;24.746;2023-07-16T06:19:54;99796.50;;;35.95;39.05
11343;BME280;5726;42.160;24.746;2023-07-16T06:22:19;99795.13;;;35.99;39.13
11343;BME280;5726;42.160;24.746;2023-07-16T06:24:44;99799.22;;;36.20;38.63
11343;BME280;5726;42.160;24.746;2023-07-16T06:27:10;99785.50;;;36.46;38.82
11343;BME280;5726;42.160;24.746;2023-07-16T06:29:35;99794.94;;;36.28;39.01
11343;BME280;5726;42.160;24.746;2023-07-16T06:32:01;99792.06;;;36.19;38.37
11343;BME280;5726;42.160;24.746;2023-07-16T06:34:28;99786.22;;;36.04;38.65
11343;BME280;5726;42.160;24.746;2023-07-16T06:36:53;99784.69;;;35.91;39.37
11343;BME280;5726;42.160;24.746;2023-07-16T06:39:19;99783.19;;;35.40;40.59
11343;BME280;5726;42.160;24.746;2023-07-16T06:41:45;99775.47;;;35.20;41.79
11343;BME280;5726;42.160;24.746;2023-07-16T06:44:10;99773.25;;;35.15;41.45
11343;BME280;5726;42.160;24.746;2023-07-16T06:46:36;99771.44;;;34.96;41.75
11343;BME280;5726;42.160;24.746;2023-07-16T06:49:01;99769.19;;;35.16;41.33
11343;BME280;5726;42.160;24.746;2023-07-16T06:51:26;99767.19;;;35.29;40.25
11343;BME280;5726;42.160;24.746;2023-07-16T06:53:54;99766.88;;;35.27;40.23
11343;BME280;5726;42.160;24.746;2023-07-16T06:56:20;99761.19;;;35.18;40.33
11343;BME280;5726;42.160;24.746;2023-07-16T06:58:45;99758.50;;;35.14;40.37
11343;BME280;5726;42.160;24.746;2023-07-16T07:01:10;99764.72;;;35.31;40.83
11343;BME280;5726;42.160;24.746;2023-07-16T07:03:36;99769.44;;;35.58;39.95
11343;BME280;5726;42.160;24.746;2023-07-16T07:06:02;99764.09;;;35.27;39.28
11343;BME280;5726;42.160;24.746;2023-07-16T07:08:29;99774.22;;;34.96;39.74
11343;BME280;5726;42.160;24.746;2023-07-16T07:10:54;99773.81;;;34.82;40.40
11343;BME280;5726;42.160;24.746;2023-07-16T07:13:20;99771.94;;;34.79;39.64
11343;BME280;5726;42.160;24.746;2023-07-16T07:15:45;99765.09;;;34.95;39.62
11343;BME280;5726;42.160;24.746;2023-07-16T07:18:10;99765.66;;;35.03;39.81
11343;BME280;5726;42.160;24.746;2023-07-16T07:20:36;99775.03;;;35.09;39.77
11343;BME280;5726;42.160;24.746;2023-07-16T07:23:01;99765.16;;;34.92;39.31
11343;BME280;5726;42.160;24.746;2023-07-16T07:25:28;99781.94;;;34.35;40.16
11343;BME280;5726;42.160;24.746;2023-07-16T07:27:54;99768.97;;;33.85;39.91
11343;BME280;5726;42.160;24.746;2023-07-16T07:30:19;99764.03;;;33.77;40.52
11343;BME280;5726;42.160;24.746;2023-07-16T07:32:45;99767.94;;;33.95;39.60
11343;BME280;5726;42.160;24.746;2023-07-16T07:35:10;99752.25;;;34.17;39.31
11343;BME280;5726;42.160;24.746;2023-07-16T07:37:36;99760.03;;;34.22;40.46
11343;BME280;5726;42.160;24.746;2023-07-16T07:40:02;99762.72;;;33.81;40.94
11343;BME280;5726;42.160;24.746;2023-07-16T07:42:29;99762.38;;;33.95;40.74
11343;BME280;5726;42.160;24.746;2023-07-16T07:44:54;99769.44;;;34.28;40.07
11343;BME280;5726;42.160;24.746;2023-07-16T07:47:20;99767.78;;;34.30;40.46
11343;BME280;5726;42.160;24.746;2023-07-16T07:49:45;99767.25;;;34.19;39.86
11343;BME280;5726;42.160;24.746;2023-07-16T07:52:11;99758.28;;;33.99;40.18
11343;BME280;5726;42.160;24.746;2023-07-16T07:54:36;99755.34;;;34.19;40.42
11343;BME280;5726;42.160;24.746;2023-07-16T07:57:03;99757.84;;;34.57;39.54
11343;BME280;5726;42.160;24.746;2023-07-16T07:59:29;99756.94;;;34.48;39.45
11343;BME280;5726;42.160;24.746;2023-07-16T08:01:55;99753.03;;;34.30;39.57
11343;BME280;5726;42.160;24.746;2023-07-16T08:04:21;99754.81;;;34.52;39.10
11343;BME280;5726;42.160;24.746;2023-07-16T08:06:46;99762.38;;;34.23;39.97
11343;BME280;5726;42.160;24.746;2023-07-16T08:09:11;99756.34;;;34.12;39.75
11343;BME280;5726;42.160;24.746;2023-07-16T08:11:37;99756.69;;;34.14;40.79
11343;BME280;5726;42.160;24.746;2023-07-16T08:14:02;99759.34;;;33.74;41.56
11343;BME280;5726;42.160;24.746;2023-07-16T08:16:28;99767.75;;;33.70;41.11
11343;BME280;5726;42.160;24.746;2023-07-16T08:18:53;99764.22;;;33.54;41.84
11343;BME280;5726;42.160;24.746;2023-07-16T08:21:19;99756.41;;;33.65;42.19
11343;BME280;5726;42.160;24.746;2023-07-16T08:23:47;99751.97;;;33.51;42.10
11343;BME280;5726;42.160;24.746;2023-07-16T08:26:12;99753.78;;;33.58;42.90
11343;BME280;5726;42.160;24.746;2023-07-16T08:28:38;99754.88;;;33.76;42.19
11343;BME280;5726;42.160;24.746;2023-07-16T08:31:03;99743.78;;;33.92;42.18
11343;BME280;5726;42.160;24.746;2023-07-16T08:33:29;99747.72;;;34.07;42.83
11343;BME280;5726;42.160;24.746;2023-07-16T08:35:54;99750.94;;;34.33;41.09
11343;BME280;5726;42.160;24.746;2023-07-16T08:38:19;99743.97;;;34.41;41.09
11343;BME280;5726;42.160;24.746;2023-07-16T08:40:47;99745.13;;;34.28;41.05
11343;BME280;5726;42.160;24.746;2023-07-16T08:43:15;99739.25;;;34.38;41.13
11343;BME280;5726;42.160;24.746;2023-07-16T08:45:41;99741.47;;;34.59;41.28
11343;BME280;5726;42.160;24.746;2023-07-16T08:48:11;99731.94;;;34.85;39.96
11343;BME280;5726;42.160;24.746;2023-07-16T08:50:38;99730.03;;;34.82;40.12
11343;BME280;5726;42.160;24.746;2023-07-16T08:53:07;99734.22;;;34.74;40.02
11343;BME280;5726;42.160;24.746;2023-07-16T08:55:36;99732.00;;;34.82;40.22
11343;BME280;5726;42.160;24.746;2023-07-16T08:58:04;99736.84;;;35.31;39.74
11343;BME280;5726;42.160;24.746;2023-07-16T09:00:30;99732.59;;;35.51;39.30
11343;BME280;5726;42.160;24.746;2023-07-16T09:02:55;99738.88;;;35.88;38.26
11343;BME280;5726;42.160;24.746;2023-07-16T09:05:21;99722.88;;;36.01;39.07
11343;BME280;5726;42.160;24.746;2023-07-16T09:07:48;99728.56;;;36.32;38.68
11343;BME280;5726;42.160;24.746;2023-07-16T09:10:13;99729.28;;;36.44;38.51
11343;BME280;5726;42.160;24.746;2023-07-16T09:12:43;99730.34;;;36.68;38.30
11343;BME280;5726;42.160;24.746;2023-07-16T09:15:09;99727.69;;;36.65;38.25
11343;BME280;5726;42.160;24.746;2023-07-16T09:17:34;99725.34;;;36.63;37.84
11343;BME280;5726;42.160;24.746;2023-07-16T09:20:03;99716.97;;;36.63;38.41
11343;BME280;5726;42.160;24.746;2023-07-16T09:22:29;99735.63;;;36.24;39.71
11343;BME280;5726;42.160;24.746;2023-07-16T09:24:55;99724.78;;;36.47;39.27
11343;BME280;5726;42.160;24.746;2023-07-16T09:27:28;99743.44;;;35.95;40.32
11343;BME280;5726;42.160;24.746;2023-07-16T09:29:53;99730.88;;;36.12;40.00
11343;BME280;5726;42.160;24.746;2023-07-16T09:32:19;99726.38;;;36.27;40.08
11343;BME280;5726;42.160;24.746;2023-07-16T09:34:44;99727.13;;;36.27;39.91
11343;BME280;5726;42.160;24.746;2023-07-16T09:37:10;99727.00;;;36.31;39.82
11343;BME280;5726;42.160;24.746;2023-07-16T09:39:37;99720.56;;;36.42;39.83
11343;BME280;5726;42.160;24.746;2023-07-16T09:42:03;99707.03;;;36.92;38.95
11343;BME280;5726;42.160;24.746;2023-07-16T09:44:29;99705.97;;;36.99;38.68
11343;BME280;5726;42.160;24.746;2023-07-16T09:46:55;99707.03;;;36.92;38.86
11343;BME280;5726;42.160;24.746;2023-07-16T09:49:21;99696.94;;;36.86;39.39
11343;BME280;5726;42.160;24.746;2023-07-16T09:51:48;99696.31;;;36.39;40.37
11343;BME280;5726;42.160;24.746;2023-07-16T09:54:14;99702.66;;;36.61;39.71
11343;BME280;5726;42.160;24.746;2023-07-16T09:56:44;99690.38;;;36.80;39.37
11343;BME280;5726;42.160;24.746;2023-07-16T09:59:15;99681.47;;;37.12;39.28
11343;BME280;5726;42.160;24.746;2023-07-16T10:01:41;99677.97;;;36.60;39.81
11343;BME280;5726;42.160;24.746;2023-07-16T10:04:17;99678.69;;;36.51;40.06
11343;BME280;5726;42.160;24.746;2023-07-16T10:06:58;99674.50;;;36.04;41.13
11343;BME280;5726;42.160;24.746;2023-07-16T10:12:25;99673.22;;;35.50;42.69
11343;BME280;5726;42.160;24.746;2023-07-16T10:14:55;99669.78;;;35.46;43.19
11343;BME280;5726;42.160;24.746;2023-07-16T10:17:26;99666.53;;;35.82;43.23
11343;BME280;5726;42.160;24.746;2023-07-16T10:20:00;99665.59;;;35.97;42.80
11343;BME280;5726;42.160;24.746;2023-07-16T10:22:36;99669.16;;;35.64;43.72
11343;BME280;5726;42.160;24.746;2023-07-16T10:25:03;99667.75;;;35.81;43.13
11343;BME280;5726;42.160;24.746;2023-07-16T10:27:33;99657.69;;;35.95;42.87
11343;BME280;5726;42.160;24.746;2023-07-16T10:30:03;99648.06;;;36.18;42.74
11343;BME280;5726;42.160;24.746;2023-07-16T10:32:31;99652.13;;;36.26;42.93
11343;BME280;5726;42.160;24.746;2023-07-16T10:34:57;99642.31;;;36.21;42.52
11343;BME280;5726;42.160;24.746;2023-07-16T10:37:24;99641.69;;;36.38;42.14
11343;BME280;5726;42.160;24.746;2023-07-16T10:39:54;99640.53;;;36.57;41.29
11343;BME280;5726;42.160;24.746;2023-07-16T10:42:21;99629.84;;;36.65;41.45
11343;BME280;5726;42.160;24.746;2023-07-16T10:44:51;99628.00;;;37.01;40.79
11343;BME280;5726;42.160;24.746;2023-07-16T10:47:39;99632.13;;;37.35;39.96
11343;BME280;5726;42.160;24.746;2023-07-16T10:50:07;99624.84;;;36.90;41.25
11343;BME280;5726;42.160;24.746;2023-07-16T10:52:33;99620.06;;;36.99;40.66
11343;BME280;5726;42.160;24.746;2023-07-16T10:54:59;99625.75;;;36.87;40.55
11343;BME280;5726;42.160;24.746;2023-07-16T10:57:25;99624.13;;;36.68;41.50
11343;BME280;5726;42.160;24.746;2023-07-16T10:59:52;99624.91;;;36.69;41.45
11343;BME280;5726;42.160;24.746;2023-07-16T11:02:18;99608.91;;;36.09;43.28
11343;BME280;5726;42.160;24.746;2023-07-16T11:04:45;99614.56;;;35.41;44.83
11343;BME280;5726;42.160;24.746;2023-07-16T11:07:12;99610.44;;;35.67;44.34
11343;BME280;5726;42.160;24.746;2023-07-16T11:10:04;99604.56;;;35.53;44.71
11343;BME280;5726;42.160;24.746;2023-07-16T11:12:30;99600.25;;;35.94;44.30
11343;BME280;5726;42.160;24.746;2023-07-16T11:14:56;99607.78;;;36.28;40.83
11343;BME280;5726;42.160;24.746;2023-07-16T11:17:24;99586.16;;;36.49;42.77
11343;BME280;5726;42.160;24.746;2023-07-16T11:19:53;99595.63;;;36.82;41.87
11343;BME280;5726;42.160;24.746;2023-07-16T11:22:19;99599.38;;;36.49;42.86
11343;BME280;5726;42.160;24.746;2023-07-16T11:24:50;99597.38;;;36.58;42.44
11343;BME280;5726;42.160;24.746;2023-07-16T11:27:31;99589.25;;;36.82;42.58
11343;BME280;5726;42.160;24.746;2023-07-16T11:29:58;99595.19;;;37.01;41.02
11343;BME280;5726;42.160;24.746;2023-07-16T11:32:38;99595.22;;;37.10;40.84
11343;BME280;5726;42.160;24.746;2023-07-16T11:35:06;99580.72;;;36.85;41.73
11343;BME280;5726;42.160;24.746;2023-07-16T11:37:34;99593.63;;;36.52;42.94
11343;BME280;5726;42.160;24.746;2023-07-16T11:40:06;99592.44;;;36.62;42.50
11343;BME280;5726;42.160;24.746;2023-07-16T11:42:33;99579.28;;;36.72;41.94
11343;BME280;5726;42.160;24.746;2023-07-16T11:44:59;99582.16;;;36.59;42.11
11343;BME280;5726;42.160;24.746;2023-07-16T11:47:26;99567.97;;;36.15;43.64
11343;BME280;5726;42.160;24.746;2023-07-16T11:49:52;99575.06;;;36.28;43.47
11343;BME280;5726;42.160;24.746;2023-07-16T11:52:36;99573.59;;;36.54;42.40
11343;BME280;5726;42.160;24.746;2023-07-16T11:55:01;99567.78;;;36.39;42.27
11343;BME280;5726;42.160;24.746;2023-07-16T11:57:29;99573.56;;;36.45;42.61
11343;BME280;5726;42.160;24.746;2023-07-16T11:59:55;99568.28;;;36.47;42.27
11343;BME280;5726;42.160;24.746;2023-07-16T12:02:21;99569.16;;;36.35;42.45
11343;BME280;5726;42.160;24.746;2023-07-16T12:04:47;99565.75;;;36.10;42.97
11343;BME280;5726;42.160;24.746;2023-07-16T12:07:12;99567.91;;;36.27;43.15
11343;BME280;5726;42.160;24.746;2023-07-16T12:09:38;99578.50;;;36.11;43.01
11343;BME280;5726;42.160;24.746;2023-07-16T12:12:04;99557.72;;;36.12;42.87
11343;BME280;5726;42.160;24.746;2023-07-16T12:14:30;99564.22;;;36.09;43.33
11343;BME280;5726;42.160;24.746;2023-07-16T12:16:56;99559.81;;;36.29;42.92
11343;BME280;5726;42.160;24.746;2023-07-16T12:19:22;99559.75;;;36.41;43.04
11343;BME280;5726;42.160;24.746;2023-07-16T12:21:47;99556.41;;;36.64;41.94
11343;BME280;5726;42.160;24.746;2023-07-16T12:24:13;99563.06;;;36.58;42.15
11343;BME280;5726;42.160;24.746;2023-07-16T12:26:38;99555.81;;;36.30;42.84
11343;BME280;5726;42.160;24.746;2023-07-16T12:29:04;99553.22;;;36.44;42.74
11343;BME280;5726;42.160;24.746;2023-07-16T12:31:30;99551.44;;;36.68;42.48
11343;BME280;5726;42.160;24.746;2023-07-16T12:33:57;99559.56;;;36.84;41.54
11343;BME280;5726;42.160;24.746;2023-07-16T12:36:23;99549.28;;;36.72;41.16
11343;BME280;5726;42.160;24.746;2023-07-16T12:38:48;99552.94;;;36.90;40.70
11343;BME280;5726;42.160;24.746;2023-07-16T12:41:13;99550.59;;;36.89;40.67
11343;BME280;5726;42.160;24.746;2023-07-16T12:43:40;99556.97;;;36.50;41.69
11343;BME280;5726;42.160;24.746;2023-07-16T12:46:06;99547.63;;;36.35;41.78
11343;BME280;5726;42.160;24.746;2023-07-16T12:48:31;99541.91;;;36.48;41.92
11343;BME280;5726;42.160;24.746;2023-07-16T12:50:57;99548.19;;;36.31;41.62
11343;BME280;5726;42.160;24.746;2023-07-16T12:53:24;99540.53;;;36.52;40.88
11343;BME280;5726;42.160;24.746;2023-07-16T12:55:50;99531.44;;;36.31;41.34
11343;BME280;5726;42.160;24.746;2023-07-16T12:58:15;99530.53;;;36.42;41.44
11343;BME280;5726;42.160;24.746;2023-07-16T13:00:41;99529.16;;;36.47;41.39
11343;BME280;5726;42.160;24.746;2023-07-16T13:03:06;99520.75;;;36.77;39.21
11343;BME280;5726;42.160;24.746;2023-07-16T13:05:37;99514.31;;;36.68;39.12
11343;BME280;5726;42.160;24.746;2023-07-16T13:08:02;99524.31;;;36.78;40.52